Bojnourd, Iran

4:08 PM IRDT on May 30, 2015 (GMT +0430)
Bojnord | | Change Station
CLOSE
Current Station
Airport
Location: Bojnourd,
Elevation: 3524 ft
Nearby Weather Stations

Elev 3524 ft 37.49 °N, 57.30 °E | Updated 38 minutes ago

Partly Cloudy
Partly Cloudy
95 °F
Feels Like 95 °F
N
7
Wind Variable Wind from NW

Today
High -- | Low -- °F
--% Chance of Precip.
Yesterday
High -- | Low -- °F
Precip. -- in
5:22 AM 7:54 PM
Waxing Gibbous, 90% visible
Pressure 29.98 in
Visibility 5.0 miles
Clouds Few 4000 ft
Dew Point 41 °F
Humidity 15%
Rainfall 0.00 in
Snow Depth Not available.
UV 6 out of 12
Pollen Not available.
Air Quality Not available.
Flu Activity Not available.
METAR OIMN 301100Z 31006KT 8000 FEW040 35/05 Q1015

More Conditions Fewer Conditions

Pressure 29.98 in
Visibility 5.0 miles
Clouds Few 4000 ft
Dew Point 41 °F
Humidity 15%
Rainfall 0.00 in
Snow Depth Not available.
UV 6 out of 12
Pollen Not available.
Air Quality Not available.
Flu Activity Not available.
METAR OIMN 301100Z 31006KT 8000 FEW040 35/05 Q1015

More Conditions Fewer Conditions

10-Day Weather Forecast

Almanac

Astronomy

May. 30, 2015 Rise Set
Actual Time
Civil Twilight
Nautical Twilight
Astronomical Twilight
Moon
Length of Visible Light
Length of Day
Tomorrow will be .
, % of the Moon is Illuminated

Today's Extremes

Country Highs Country Lows

Community

WunderPhotos

Upload Photos

1,825,481 photos uploaded!

WunderBlogs® & News

Nearby

Air Quality

  Air Quality AQ Index Pollutant
Not available.

Snow Depth

Station Depth Elevation

Earthquake Activity

City Distance Mag. Time & Date
Minimum magnitude displayed is 2.5.

Coastal Water Temperatures

Place Temperature

Stations

Nearby Weather Stations

Station Location Temp. Windchill Dew Point Humidity Wind Precip. Elev Updated Type